createdAt,value
2023-08-12T00:04:56.186Z,59.51
2023-08-12T00:10:00.569Z,61.16
2023-08-12T00:15:06.422Z,69.37
2023-08-12T00:20:12.465Z,62.21
2023-08-12T00:25:16.381Z,55.74
2023-08-12T00:30:19.273Z,59.10
2023-08-12T00:35:22.144Z,63.08
2023-08-12T00:40:27.255Z,65.34
2023-08-12T00:45:30.617Z,56.01
2023-08-12T00:50:33.628Z,57.97
2023-08-12T00:55:36.705Z,60.08
2023-08-12T01:00:39.544Z,67.96
2023-08-12T01:05:43.785Z,59.00
2023-08-12T01:10:53.571Z,55.28
2023-08-12T01:16:00.256Z,60.49
2023-08-12T01:21:05.020Z,66.24
2023-08-12T01:26:07.920Z,55.58
2023-08-12T01:31:30.928Z,58.41
2023-08-12T01:36:37.721Z,60.99
2023-08-12T01:41:40.763Z,67.86
2023-08-12T01:46:45.461Z,56.81
2023-08-12T01:51:48.436Z,56.58
2023-08-12T01:56:51.301Z,60.34
2023-08-12T02:01:54.165Z,66.26
2023-08-12T02:06:57.123Z,56.10
2023-08-12T02:12:00.048Z,58.55
2023-08-12T02:17:03.370Z,61.72
2023-08-12T02:22:06.223Z,67.17
2023-08-12T02:27:09.262Z,56.53
2023-08-12T02:32:12.202Z,57.82
2023-08-12T02:37:15.058Z,61.07
2023-08-12T02:42:17.966Z,67.45
2023-08-12T02:47:20.802Z,57.73
2023-08-12T02:52:23.711Z,56.73
2023-08-12T02:57:27.077Z,59.88
2023-08-12T03:02:29.999Z,60.60
2023-08-12T03:07:32.914Z,70.27
2023-08-12T03:12:36.240Z,60.62
2023-08-12T03:17:43.011Z,56.26
2023-08-12T03:22:45.964Z,60.03
2023-08-12T03:27:48.802Z,66.56
2023-08-12T03:32:53.172Z,57.33
2023-08-12T03:37:56.046Z,57.34
2023-08-12T03:42:58.940Z,61.68
2023-08-12T03:48:01.795Z,66.07
2023-08-12T03:53:05.605Z,56.64
2023-08-12T03:58:08.579Z,57.90
2023-08-12T04:03:11.589Z,61.44
2023-08-12T04:08:15.049Z,65.52
2023-08-12T04:13:18.425Z,55.80
2023-08-12T04:18:21.337Z,58.61
2023-08-12T04:23:24.205Z,61.43
2023-08-12T04:28:27.564Z,66.49
2023-08-12T04:33:30.436Z,58.49
2023-08-12T04:38:33.461Z,56.42
2023-08-12T04:43:36.217Z,58.05
2023-08-12T04:48:39.070Z,60.78
2023-08-12T04:53:41.985Z,64.67
2023-08-12T04:58:44.816Z,55.91
2023-08-12T05:03:47.648Z,56.69
2023-08-12T05:08:50.514Z,59.26
2023-08-12T05:13:53.272Z,61.10
2023-08-12T05:18:56.226Z,61.26
2023-08-12T05:23:58.997Z,66.98
2023-08-12T05:29:01.874Z,56.61
2023-08-12T05:34:04.764Z,56.91
2023-08-12T05:39:07.589Z,57.24
2023-08-12T05:44:10.368Z,59.24
2023-08-12T05:49:13.241Z,59.26
2023-08-12T05:54:15.997Z,59.69
2023-08-12T05:59:18.847Z,58.56
2023-08-12T06:04:21.782Z,59.32
2023-08-12T06:09:24.656Z,59.56
2023-08-12T06:14:27.492Z,59.89
2023-08-12T06:19:30.331Z,60.00
2023-08-12T06:24:33.436Z,60.19
2023-08-12T06:29:36.379Z,60.79
2023-08-12T06:34:39.317Z,65.61
2023-08-12T06:39:42.382Z,54.63
2023-08-12T06:44:46.489Z,54.57
2023-08-12T06:49:49.593Z,56.90
2023-08-12T06:54:54.152Z,57.62
2023-08-12T07:00:00.127Z,59.60
2023-08-12T07:05:04.944Z,58.93
2023-08-12T07:10:09.949Z,57.05
2023-08-12T07:15:15.208Z,59.07
2023-08-12T07:20:18.245Z,57.07
2023-08-12T07:25:22.815Z,54.98
2023-08-12T07:30:25.751Z,55.62
2023-08-12T07:35:29.507Z,54.66
2023-08-12T07:40:42.110Z,56.73
2023-08-12T07:45:51.340Z,54.46
2023-08-12T07:51:00.489Z,54.12
2023-08-12T07:56:05.958Z,54.76
2023-08-12T08:01:10.662Z,54.21
2023-08-12T08:06:14.299Z,53.40
2023-08-12T08:11:19.281Z,53.21
2023-08-12T08:16:24.564Z,52.87
2023-08-12T08:21:27.724Z,51.78
2023-08-12T08:26:30.950Z,50.73
2023-08-12T08:31:34.370Z,50.52
2023-08-12T08:36:39.733Z,49.97
2023-08-12T08:41:44.990Z,49.64
2023-08-12T08:46:48.536Z,49.96
2023-08-12T08:51:52.568Z,47.51
2023-08-12T08:57:01.004Z,47.72
2023-08-12T09:02:17.775Z,47.82
2023-08-12T09:07:22.292Z,46.96
2023-08-12T09:12:25.858Z,46.56
2023-08-12T09:17:29.069Z,45.90
2023-08-12T09:22:32.229Z,44.95
2023-08-12T09:27:37.293Z,44.21
2023-08-12T09:32:40.235Z,43.93
2023-08-12T09:37:43.279Z,44.00
2023-08-12T09:42:47.751Z,43.87
2023-08-12T09:47:51.698Z,43.93
2023-08-12T09:52:56.466Z,42.77
2023-08-12T09:58:01.259Z,42.85
2023-08-12T10:03:05.506Z,42.80
2023-08-12T10:08:09.198Z,42.64
2023-08-12T10:13:13.406Z,42.60
2023-08-12T10:18:16.708Z,42.29
2023-08-12T10:23:20.187Z,42.42
2023-08-12T10:28:23.516Z,41.46
2023-08-12T10:33:26.513Z,41.73
2023-08-12T10:38:30.235Z,41.28
2023-08-12T10:43:52.199Z,41.14
2023-08-12T10:49:05.404Z,40.46
2023-08-12T10:54:31.200Z,40.44
2023-08-12T10:59:46.617Z,40.57
2023-08-12T11:05:03.933Z,39.95
2023-08-12T11:10:14.424Z,39.19
2023-08-12T11:15:17.627Z,39.20
2023-08-12T11:20:20.576Z,38.89
2023-08-12T11:25:24.003Z,38.69
2023-08-12T11:30:28.995Z,38.43
2023-08-12T11:35:33.216Z,38.21
2023-08-12T11:40:36.343Z,38.12
2023-08-12T11:45:43.285Z,37.62
2023-08-12T11:50:46.405Z,37.26
2023-08-12T11:55:49.585Z,37.24
2023-08-12T12:00:52.799Z,36.83
2023-08-12T12:05:58.760Z,36.69
2023-08-12T12:11:07.203Z,36.86
2023-08-12T12:16:12.890Z,36.20
2023-08-12T12:21:21.803Z,36.26
2023-08-12T12:26:25.000Z,36.09
2023-08-12T12:31:27.886Z,36.09
2023-08-12T12:36:36.699Z,36.24
2023-08-12T12:41:39.752Z,36.10
2023-08-12T12:46:42.817Z,35.78
2023-08-12T12:51:47.209Z,34.80
2023-08-12T12:56:50.798Z,34.73
2023-08-12T13:01:57.089Z,35.31
2023-08-12T13:07:00.641Z,34.36
2023-08-12T13:12:05.900Z,34.66
2023-08-12T13:17:13.160Z,34.67
2023-08-12T13:22:17.942Z,34.73
2023-08-12T13:27:21.043Z,34.84
2023-08-12T13:32:24.231Z,33.98
2023-08-12T13:37:41.072Z,33.88
2023-08-12T13:42:48.488Z,34.07
2023-08-12T13:47:55.290Z,34.16
2023-08-12T13:52:58.443Z,33.43
2023-08-12T13:58:02.583Z,32.78
2023-08-12T14:03:05.944Z,32.48
2023-08-12T14:08:12.740Z,33.21
2023-08-12T14:13:15.928Z,33.72
2023-08-12T14:18:19.473Z,33.15
2023-08-12T14:23:22.429Z,32.64
2023-08-12T14:28:26.186Z,33.19
2023-08-12T14:33:30.293Z,32.83
2023-08-12T14:38:34.294Z,31.71
2023-08-12T14:43:38.344Z,31.23
2023-08-12T14:48:41.400Z,30.47
2023-08-12T14:53:44.708Z,30.33
2023-08-12T14:58:51.624Z,30.54
2023-08-12T15:03:55.839Z,30.26
2023-08-12T15:08:58.827Z,30.07
2023-08-12T15:14:01.679Z,29.08
2023-08-12T15:19:05.016Z,26.41
2023-08-12T15:24:08.241Z,27.80
2023-08-12T15:29:11.192Z,27.92
2023-08-12T15:34:14.208Z,26.34
2023-08-12T15:39:18.157Z,25.93
2023-08-12T15:44:21.539Z,26.25
2023-08-12T15:49:25.808Z,25.75
2023-08-12T15:54:30.275Z,25.29
2023-08-12T15:59:33.856Z,24.56
2023-08-12T16:04:36.994Z,23.57
2023-08-12T16:09:41.196Z,24.07
2023-08-12T16:14:44.171Z,24.24
2023-08-12T16:19:49.179Z,24.92
2023-08-12T16:24:52.448Z,24.44
2023-08-12T16:30:00.247Z,24.51
2023-08-12T16:35:03.187Z,24.67
2023-08-12T16:40:07.617Z,25.75
2023-08-12T16:45:10.881Z,27.46
2023-08-12T16:50:13.740Z,28.87
2023-08-12T16:55:16.718Z,30.96
2023-08-12T17:00:20.130Z,32.29
2023-08-12T17:05:23.006Z,32.96
2023-08-12T17:10:25.960Z,35.28
2023-08-12T17:15:29.347Z,36.08
2023-08-12T17:20:32.320Z,37.83
2023-08-12T17:25:35.212Z,39.72
2023-08-12T17:30:38.113Z,41.32
2023-08-12T17:35:41.391Z,43.96
2023-08-12T17:40:44.888Z,44.23
2023-08-12T17:45:48.889Z,43.23
2023-08-12T17:50:51.829Z,44.40
2023-08-12T17:55:54.807Z,45.38
2023-08-12T18:00:58.412Z,45.95
2023-08-12T18:06:04.791Z,48.14
2023-08-12T18:11:07.748Z,48.87
2023-08-12T18:16:10.968Z,49.29
2023-08-12T18:21:15.550Z,50.09
2023-08-12T18:26:18.475Z,50.65
2023-08-12T18:31:21.318Z,51.36
2023-08-12T18:36:24.209Z,50.64
2023-08-12T18:41:27.077Z,53.14
2023-08-12T18:46:30.198Z,53.69
2023-08-12T18:51:33.133Z,54.57
2023-08-12T18:56:36.116Z,56.07
2023-08-12T19:01:38.953Z,56.31
2023-08-12T19:06:41.862Z,57.29
2023-08-12T19:11:45.625Z,57.11
2023-08-12T19:16:48.567Z,55.62
2023-08-12T19:21:51.442Z,56.10
2023-08-12T19:26:54.294Z,56.14
2023-08-12T19:31:57.151Z,58.17
2023-08-12T19:37:00.074Z,58.30
2023-08-12T19:42:03.690Z,57.76
2023-08-12T19:47:11.112Z,58.31
2023-08-12T19:52:16.372Z,58.01
2023-08-12T19:57:26.145Z,56.68
2023-08-12T20:02:38.458Z,56.18
2023-08-12T20:07:49.855Z,56.20
2023-08-12T20:12:56.677Z,56.48
2023-08-12T20:18:00.754Z,56.84
2023-08-12T20:23:06.535Z,56.99
2023-08-12T20:28:10.351Z,57.06
2023-08-12T20:33:13.726Z,56.81
2023-08-12T20:38:19.545Z,56.91
2023-08-12T20:43:22.408Z,56.94
2023-08-12T20:48:25.345Z,56.87
2023-08-12T20:53:29.994Z,56.78
2023-08-12T20:58:32.916Z,56.84
2023-08-12T21:03:35.916Z,56.80
2023-08-12T21:08:38.978Z,57.25
2023-08-12T21:13:41.853Z,57.22
2023-08-12T21:18:44.905Z,57.61
2023-08-12T21:23:47.943Z,57.53
2023-08-12T21:28:50.919Z,57.30
2023-08-12T21:33:53.852Z,57.98
2023-08-12T21:38:57.185Z,57.86
2023-08-12T21:44:00.472Z,57.80
2023-08-12T21:49:03.753Z,58.02
2023-08-12T21:54:06.649Z,58.23
2023-08-12T21:59:09.637Z,57.96
2023-08-12T22:04:12.570Z,58.00
2023-08-12T22:09:15.449Z,58.51
2023-08-12T22:14:18.314Z,58.69
2023-08-12T22:19:21.184Z,58.86
2023-08-12T22:24:24.217Z,58.33
2023-08-12T22:29:27.063Z,58.64
2023-08-12T22:34:29.950Z,58.48
2023-08-12T22:39:32.913Z,58.49
2023-08-12T22:44:35.773Z,58.89
2023-08-12T22:49:38.639Z,59.27
2023-08-12T22:54:41.787Z,59.32
2023-08-12T22:59:45.020Z,59.06
2023-08-12T23:04:47.977Z,59.22
2023-08-12T23:09:50.912Z,59.66
2023-08-12T23:14:54.825Z,59.80
2023-08-12T23:19:57.668Z,59.15
2023-08-12T23:25:00.553Z,59.54
2023-08-12T23:30:04.498Z,59.61
2023-08-12T23:35:08.413Z,59.21
2023-08-12T23:40:15.126Z,59.92
2023-08-12T23:45:18.038Z,59.88
2023-08-12T23:50:20.966Z,60.44
2023-08-12T23:55:23.833Z,60.72
